sensor_id;sensor_type;location;lat;lon;timestamp;pressure;altitude;pressure_sealevel;temperature;humidity
75656;BME280;64252;51.094;13.714;2023-08-07T00:00:51;99106.16;;;21.25;nan
75656;BME280;64252;51.094;13.714;2023-08-07T00:03:18;99106.75;;;21.29;nan
75656;BME280;64252;51.094;13.714;2023-08-07T00:05:50;99103.97;;;22.08;nan
75656;BME280;64252;51.094;13.714;2023-08-07T00:08:18;99112.50;;;21.87;nan
75656;BME280;64252;51.094;13.714;2023-08-07T00:10:43;99104.78;;;21.64;nan
75656;BME280;64252;51.094;13.714;2023-08-07T00:13:09;99104.00;;;21.93;nan
75656;BME280;64252;51.094;13.714;2023-08-07T00:15:37;99099.16;;;22.54;nan
75656;BME280;64252;51.094;13.714;2023-08-07T00:18:03;99106.06;;;21.63;nan
75656;BME280;64252;51.094;13.714;2023-08-07T00:20:28;99110.72;;;22.05;nan
75656;BME280;64252;51.094;13.714;2023-08-07T00:22:54;99107.66;;;21.79;nan
75656;BME280;64252;51.094;13.714;2023-08-07T00:25:19;99105.88;;;21.67;nan
75656;BME280;64252;51.094;13.714;2023-08-07T00:27:45;99111.91;;;21.83;nan
75656;BME280;64252;51.094;13.714;2023-08-07T00:30:11;99106.63;;;22.46;nan
75656;BME280;64252;51.094;13.714;2023-08-07T00:32:36;99106.69;;;22.31;nan
75656;BME280;64252;51.094;13.714;2023-08-07T00:35:02;99109.53;;;22.11;nan
75656;BME280;64252;51.094;13.714;2023-08-07T00:37:30;99113.31;;;21.44;nan
75656;BME280;64252;51.094;13.714;2023-08-07T00:39:55;99116.78;;;21.77;nan
75656;BME280;64252;51.094;13.714;2023-08-07T00:42:21;99112.72;;;21.69;nan
75656;BME280;64252;51.094;13.714;2023-08-07T00:44:46;99114.31;;;21.02;nan
75656;BME280;64252;51.094;13.714;2023-08-07T00:47:12;99122.59;;;21.39;nan
75656;BME280;64252;51.094;13.714;2023-08-07T00:49:37;99113.19;;;21.24;nan
75656;BME280;64252;51.094;13.714;2023-08-07T00:52:03;99116.56;;;21.96;nan
75656;BME280;64252;51.094;13.714;2023-08-07T00:54:29;99112.13;;;21.65;nan
75656;BME280;64252;51.094;13.714;2023-08-07T00:56:59;99107.22;;;21.13;nan
75656;BME280;64252;51.094;13.714;2023-08-07T00:59:26;99117.59;;;21.10;nan
75656;BME280;64252;51.094;13.714;2023-08-07T01:01:52;99114.59;;;21.87;nan
75656;BME280;64252;51.094;13.714;2023-08-07T01:04:17;99112.13;;;21.65;nan
75656;BME280;64252;51.094;13.714;2023-08-07T01:06:43;99109.16;;;21.74;nan
75656;BME280;64252;51.094;13.714;2023-08-07T01:09:08;99113.22;;;22.32;nan
75656;BME280;64252;51.094;13.714;2023-08-07T01:17:15;99103.00;;;21.81;nan
75656;BME280;64252;51.094;13.714;2023-08-07T01:19:42;99103.00;;;21.81;nan
75656;BME280;64252;51.094;13.714;2023-08-07T01:22:16;99102.41;;;21.48;nan
75656;BME280;64252;51.094;13.714;2023-08-07T01:24:51;99100.16;;;20.99;nan
75656;BME280;64252;51.094;13.714;2023-08-07T01:30:07;99102.41;;;21.33;nan
75656;BME280;64252;51.094;13.714;2023-08-07T01:35:12;99108.34;;;21.30;nan
75656;BME280;64252;51.094;13.714;2023-08-07T01:37:41;99108.06;;;20.89;nan
75656;BME280;64252;51.094;13.714;2023-08-07T01:40:08;99118.47;;;21.40;nan
75656;BME280;64252;51.094;13.714;2023-08-07T01:42:36;99115.47;;;21.34;nan
75656;BME280;64252;51.094;13.714;2023-08-07T01:45:04;99114.09;;;21.44;nan
75656;BME280;64252;51.094;13.714;2023-08-07T01:47:30;99111.22;;;21.30;nan
75656;BME280;64252;51.094;13.714;2023-08-07T01:49:55;99105.63;;;21.12;nan
75656;BME280;64252;51.094;13.714;2023-08-07T01:52:21;99115.78;;;21.22;nan
75656;BME280;64252;51.094;13.714;2023-08-07T01:54:46;99116.03;;;21.09;nan
75656;BME280;64252;51.094;13.714;2023-08-07T01:57:12;99120.91;;;21.47;nan
75656;BME280;64252;51.094;13.714;2023-08-07T01:59:38;99120.44;;;21.34;nan
75656;BME280;64252;51.094;13.714;2023-08-07T02:02:03;99126.72;;;21.09;nan
75656;BME280;64252;51.094;13.714;2023-08-07T02:04:29;99119.31;;;21.17;nan
75656;BME280;64252;51.094;13.714;2023-08-07T02:06:54;99132.53;;;20.99;nan
75656;BME280;64252;51.094;13.714;2023-08-07T02:09:22;99135.72;;;20.78;nan
75656;BME280;64252;51.094;13.714;2023-08-07T02:11:48;99126.97;;;21.49;nan
75656;BME280;64252;51.094;13.714;2023-08-07T02:14:14;99132.13;;;21.30;nan
75656;BME280;64252;51.094;13.714;2023-08-07T02:16:40;99133.47;;;21.20;nan
75656;BME280;64252;51.094;13.714;2023-08-07T02:19:05;99127.63;;;21.15;nan
75656;BME280;64252;51.094;13.714;2023-08-07T02:21:33;99120.66;;;21.60;nan
75656;BME280;64252;51.094;13.714;2023-08-07T02:23:58;99122.09;;;21.26;nan
75656;BME280;64252;51.094;13.714;2023-08-07T02:26:24;99125.38;;;21.19;nan
75656;BME280;64252;51.094;13.714;2023-08-07T02:28:49;99128.94;;;21.28;nan
75656;BME280;64252;51.094;13.714;2023-08-07T02:31:14;99125.88;;;21.61;nan
75656;BME280;64252;51.094;13.714;2023-08-07T02:33:40;99131.94;;;21.78;nan
75656;BME280;64252;51.094;13.714;2023-08-07T02:36:07;99128.47;;;21.88;nan
75656;BME280;64252;51.094;13.714;2023-08-07T02:38:32;99128.16;;;21.57;nan
75656;BME280;64252;51.094;13.714;2023-08-07T02:40:59;99126.78;;;21.82;nan
75656;BME280;64252;51.094;13.714;2023-08-07T02:43:25;99135.09;;;21.95;nan
75656;BME280;64252;51.094;13.714;2023-08-07T02:45:51;99131.13;;;21.77;nan
75656;BME280;64252;51.094;13.714;2023-08-07T02:48:18;99131.13;;;21.92;nan
75656;BME280;64252;51.094;13.714;2023-08-07T02:50:45;99128.75;;;21.61;nan
75656;BME280;64252;51.094;13.714;2023-08-07T02:53:11;99132.13;;;21.45;nan
75656;BME280;64252;51.094;13.714;2023-08-07T02:55:36;99139.94;;;21.06;nan
75656;BME280;64252;51.094;13.714;2023-08-07T02:58:02;99137.88;;;21.07;nan
75656;BME280;64252;51.094;13.714;2023-08-07T03:00:27;99132.34;;;21.56;nan
75656;BME280;64252;51.094;13.714;2023-08-07T03:02:53;99134.31;;;20.73;nan
75656;BME280;64252;51.094;13.714;2023-08-07T03:05:18;99139.69;;;20.56;nan
75656;BME280;64252;51.094;13.714;2023-08-07T03:07:44;99168.13;;;20.03;nan
75656;BME280;64252;51.094;13.714;2023-08-07T03:10:10;99171.13;;;19.40;nan
75656;BME280;64252;51.094;13.714;2023-08-07T03:12:36;99166.94;;;19.77;nan
75656;BME280;64252;51.094;13.714;2023-08-07T03:15:05;99169.22;;;19.27;nan
75656;BME280;64252;51.094;13.714;2023-08-07T03:17:31;99177.97;;;19.33;nan
75656;BME280;64252;51.094;13.714;2023-08-07T03:19:56;99186.69;;;19.75;nan
75656;BME280;64252;51.094;13.714;2023-08-07T03:22:22;99188.63;;;19.51;nan
75656;BME280;64252;51.094;13.714;2023-08-07T03:24:48;99200.03;;;19.69;nan
75656;BME280;64252;51.094;13.714;2023-08-07T03:27:14;99196.25;;;19.45;nan
75656;BME280;64252;51.094;13.714;2023-08-07T03:29:40;99198.97;;;19.30;nan
75656;BME280;64252;51.094;13.714;2023-08-07T03:32:06;99199.59;;;19.61;nan
75656;BME280;64252;51.094;13.714;2023-08-07T03:34:33;99197.56;;;20.04;nan
75656;BME280;64252;51.094;13.714;2023-08-07T03:37:00;99204.84;;;19.72;nan
75656;BME280;64252;51.094;13.714;2023-08-07T03:39:26;99211.53;;;19.60;nan
75656;BME280;64252;51.094;13.714;2023-08-07T03:41:51;99210.09;;;20.34;nan
75656;BME280;64252;51.094;13.714;2023-08-07T03:44:17;99221.75;;;20.12;nan
75656;BME280;64252;51.094;13.714;2023-08-07T03:46:43;99226.97;;;20.23;nan
75656;BME280;64252;51.094;13.714;2023-08-07T03:49:08;99227.97;;;20.01;nan
75656;BME280;64252;51.094;13.714;2023-08-07T03:51:34;99228.75;;;20.11;nan
75656;BME280;64252;51.094;13.714;2023-08-07T03:53:59;99216.34;;;20.56;nan
75656;BME280;64252;51.094;13.714;2023-08-07T03:56:25;99220.91;;;20.63;nan
75656;BME280;64252;51.094;13.714;2023-08-07T03:58:51;99232.22;;;20.66;nan
75656;BME280;64252;51.094;13.714;2023-08-07T04:01:19;99226.63;;;20.30;nan
75656;BME280;64252;51.094;13.714;2023-08-07T04:03:46;99237.69;;;20.13;nan
75656;BME280;64252;51.094;13.714;2023-08-07T04:06:13;99234.81;;;20.55;nan
75656;BME280;64252;51.094;13.714;2023-08-07T04:08:42;99233.84;;;20.16;nan
75656;BME280;64252;51.094;13.714;2023-08-07T04:11:08;99245.16;;;20.20;nan
75656;BME280;64252;51.094;13.714;2023-08-07T04:13:34;99232.00;;;20.46;nan
75656;BME280;64252;51.094;13.714;2023-08-07T04:16:01;99248.56;;;20.51;nan
75656;BME280;64252;51.094;13.714;2023-08-07T04:18:29;99241.69;;;20.48;nan
75656;BME280;64252;51.094;13.714;2023-08-07T04:20:56;99247.44;;;20.81;nan
75656;BME280;64252;51.094;13.714;2023-08-07T04:23:22;99243.25;;;20.58;nan
75656;BME280;64252;51.094;13.714;2023-08-07T04:25:48;99241.75;;;20.72;nan
75656;BME280;64252;51.094;13.714;2023-08-07T04:28:14;99251.34;;;20.18;nan
75656;BME280;64252;51.094;13.714;2023-08-07T04:30:40;99259.59;;;20.76;nan
75656;BME280;64252;51.094;13.714;2023-08-07T04:33:07;99253.22;;;20.39;nan
75656;BME280;64252;51.094;13.714;2023-08-07T04:35:33;99255.00;;;20.28;nan
75656;BME280;64252;51.094;13.714;2023-08-07T04:37:59;99260.81;;;20.51;nan
75656;BME280;64252;51.094;13.714;2023-08-07T04:40:24;99267.16;;;20.88;nan
75656;BME280;64252;51.094;13.714;2023-08-07T04:42:50;99266.34;;;21.21;nan
75656;BME280;64252;51.094;13.714;2023-08-07T04:45:15;99263.41;;;20.40;nan
75656;BME280;64252;51.094;13.714;2023-08-07T04:47:41;99262.47;;;21.00;nan
75656;BME280;64252;51.094;13.714;2023-08-07T04:50:07;99268.66;;;21.08;nan
75656;BME280;64252;51.094;13.714;2023-08-07T04:52:34;99265.25;;;20.62;nan
75656;BME280;64252;51.094;13.714;2023-08-07T04:54:59;99270.66;;;20.59;nan
75656;BME280;64252;51.094;13.714;2023-08-07T04:57:26;99275.06;;;21.02;nan
75656;BME280;64252;51.094;13.714;2023-08-07T04:59:52;99274.00;;;21.62;nan
75656;BME280;64252;51.094;13.714;2023-08-07T05:02:19;99274.75;;;21.48;nan
75656;BME280;64252;51.094;13.714;2023-08-07T05:04:45;99272.94;;;21.36;nan
75656;BME280;64252;51.094;13.714;2023-08-07T05:07:11;99274.06;;;21.06;nan
75656;BME280;64252;51.094;13.714;2023-08-07T05:09:36;99280.44;;;21.57;nan
75656;BME280;64252;51.094;13.714;2023-08-07T05:12:02;99284.06;;;21.81;nan
75656;BME280;64252;51.094;13.714;2023-08-07T05:14:29;99284.13;;;21.34;nan
75656;BME280;64252;51.094;13.714;2023-08-07T05:16:55;99284.44;;;21.74;nan
75656;BME280;64252;51.094;13.714;2023-08-07T05:19:20;99284.19;;;21.25;nan
75656;BME280;64252;51.094;13.714;2023-08-07T05:21:47;99289.34;;;20.88;nan
75656;BME280;64252;51.094;13.714;2023-08-07T05:24:15;99285.97;;;21.22;nan
75656;BME280;64252;51.094;13.714;2023-08-07T05:26:41;99302.22;;;21.49;nan
75656;BME280;64252;51.094;13.714;2023-08-07T05:29:07;99300.34;;;21.22;nan
75656;BME280;64252;51.094;13.714;2023-08-07T05:31:33;99296.03;;;21.65;nan
75656;BME280;64252;51.094;13.714;2023-08-07T05:33:59;99302.66;;;21.00;nan
75656;BME280;64252;51.094;13.714;2023-08-07T05:36:25;99306.13;;;20.80;nan
75656;BME280;64252;51.094;13.714;2023-08-07T05:38:50;99311.28;;;21.33;nan
75656;BME280;64252;51.094;13.714;2023-08-07T05:41:17;99312.50;;;21.79;nan
75656;BME280;64252;51.094;13.714;2023-08-07T05:43:43;99306.72;;;20.84;nan
75656;BME280;64252;51.094;13.714;2023-08-07T05:46:08;99304.66;;;21.41;nan
75656;BME280;64252;51.094;13.714;2023-08-07T05:48:34;99310.47;;;21.71;nan
75656;BME280;64252;51.094;13.714;2023-08-07T05:51:00;99309.00;;;21.75;nan
75656;BME280;64252;51.094;13.714;2023-08-07T05:53:34;99320.47;;;21.99;nan
75656;BME280;64252;51.094;13.714;2023-08-07T05:56:01;99323.69;;;22.16;nan
75656;BME280;64252;51.094;13.714;2023-08-07T05:58:27;99316.56;;;21.49;nan
75656;BME280;64252;51.094;13.714;2023-08-07T06:00:53;99322.41;;;22.31;nan
75656;BME280;64252;51.094;13.714;2023-08-07T06:03:19;99325.28;;;22.17;nan
75656;BME280;64252;51.094;13.714;2023-08-07T06:05:44;99324.28;;;21.81;nan
75656;BME280;64252;51.094;13.714;2023-08-07T06:08:10;99328.25;;;22.08;nan
75656;BME280;64252;51.094;13.714;2023-08-07T06:10:35;99329.91;;;22.00;nan
75656;BME280;64252;51.094;13.714;2023-08-07T06:13:01;99340.56;;;22.38;nan
75656;BME280;64252;51.094;13.714;2023-08-07T06:33:13;99368.34;;;21.64;nan
75656;BME280;64252;51.094;13.714;2023-08-07T06:35:39;99369.81;;;20.93;nan
75656;BME280;64252;51.094;13.714;2023-08-07T06:38:08;99376.09;;;21.72;nan
75656;BME280;64252;51.094;13.714;2023-08-07T06:40:35;99379.41;;;21.56;nan
75656;BME280;64252;51.094;13.714;2023-08-07T06:43:02;99375.91;;;22.00;nan
75656;BME280;64252;51.094;13.714;2023-08-07T06:45:27;99385.00;;;22.37;nan
75656;BME280;64252;51.094;13.714;2023-08-07T06:47:54;99384.66;;;22.88;nan
75656;BME280;64252;51.094;13.714;2023-08-07T06:50:20;99387.16;;;22.12;nan
75656;BME280;64252;51.094;13.714;2023-08-07T06:52:45;99383.38;;;21.82;nan
75656;BME280;64252;51.094;13.714;2023-08-07T06:55:11;99389.19;;;22.50;nan
75656;BME280;64252;51.094;13.714;2023-08-07T06:57:36;99388.88;;;22.48;nan
75656;BME280;64252;51.094;13.714;2023-08-07T07:00:02;99395.41;;;22.34;nan
75656;BME280;64252;51.094;13.714;2023-08-07T07:02:28;99395.34;;;23.02;nan
75656;BME280;64252;51.094;13.714;2023-08-07T07:04:54;99390.75;;;22.22;nan
75656;BME280;64252;51.094;13.714;2023-08-07T07:07:19;99397.34;;;23.45;nan
75656;BME280;64252;51.094;13.714;2023-08-07T07:09:45;99401.88;;;24.27;nan
75656;BME280;64252;51.094;13.714;2023-08-07T07:12:10;99394.44;;;24.00;nan
75656;BME280;64252;51.094;13.714;2023-08-07T07:14:36;99395.25;;;24.01;nan
75656;BME280;64252;51.094;13.714;2023-08-07T07:17:01;99396.38;;;24.29;nan
75656;BME280;64252;51.094;13.714;2023-08-07T07:19:27;99398.16;;;23.31;nan
75656;BME280;64252;51.094;13.714;2023-08-07T07:21:52;99394.50;;;24.06;nan
75656;BME280;64252;51.094;13.714;2023-08-07T07:24:18;99407.97;;;23.39;nan
75656;BME280;64252;51.094;13.714;2023-08-07T07:26:44;99409.50;;;23.70;nan
75656;BME280;64252;51.094;13.714;2023-08-07T07:29:10;99407.59;;;23.32;nan
75656;BME280;64252;51.094;13.714;2023-08-07T07:31:35;99398.28;;;23.92;nan
75656;BME280;64252;51.094;13.714;2023-08-07T07:34:01;99397.97;;;23.90;nan
75656;BME280;64252;51.094;13.714;2023-08-07T07:36:27;99415.69;;;23.63;nan
75656;BME280;64252;51.094;13.714;2023-08-07T07:38:53;99417.13;;;23.93;nan
75656;BME280;64252;51.094;13.714;2023-08-07T07:41:18;99417.88;;;24.54;nan
75656;BME280;64252;51.094;13.714;2023-08-07T07:43:44;99423.34;;;24.26;nan
75656;BME280;64252;51.094;13.714;2023-08-07T07:46:09;99428.56;;;24.22;nan
75656;BME280;64252;51.094;13.714;2023-08-07T07:48:35;99429.28;;;22.98;nan
75656;BME280;64252;51.094;13.714;2023-08-07T07:51:02;99432.13;;;23.77;nan
75656;BME280;64252;51.094;13.714;2023-08-07T07:53:28;99428.44;;;23.41;nan
75656;BME280;64252;51.094;13.714;2023-08-07T07:55:54;99438.38;;;24.82;nan
75656;BME280;64252;51.094;13.714;2023-08-07T07:58:20;99432.72;;;24.41;nan
75656;BME280;64252;51.094;13.714;2023-08-07T08:00:46;99444.66;;;23.74;nan
75656;BME280;64252;51.094;13.714;2023-08-07T08:03:12;99442.72;;;24.92;nan
75656;BME280;64252;51.094;13.714;2023-08-07T08:05:38;99445.63;;;23.85;nan
75656;BME280;64252;51.094;13.714;2023-08-07T08:08:05;99457.75;;;23.54;nan
75656;BME280;64252;51.094;13.714;2023-08-07T08:10:32;99452.53;;;23.93;nan
75656;BME280;64252;51.094;13.714;2023-08-07T08:12:58;99453.25;;;24.49;nan
75656;BME280;64252;51.094;13.714;2023-08-07T08:15:23;99465.34;;;23.08;nan
75656;BME280;64252;51.094;13.714;2023-08-07T08:17:49;99466.78;;;22.59;nan
75656;BME280;64252;51.094;13.714;2023-08-07T08:20:15;99468.53;;;24.29;nan
75656;BME280;64252;51.094;13.714;2023-08-07T08:22:44;99467.72;;;23.24;nan
75656;BME280;64252;51.094;13.714;2023-08-07T08:25:10;99466.75;;;23.97;nan
75656;BME280;64252;51.094;13.714;2023-08-07T08:27:40;99473.25;;;23.42;nan
75656;BME280;64252;51.094;13.714;2023-08-07T08:30:06;99480.91;;;24.15;nan
75656;BME280;64252;51.094;13.714;2023-08-07T08:32:32;99470.34;;;23.72;nan
75656;BME280;64252;51.094;13.714;2023-08-07T08:34:58;99473.56;;;25.06;nan
75656;BME280;64252;51.094;13.714;2023-08-07T08:37:24;99476.50;;;25.38;nan
75656;BME280;64252;51.094;13.714;2023-08-07T08:39:49;99480.22;;;25.81;nan
75656;BME280;64252;51.094;13.714;2023-08-07T08:42:15;99482.97;;;25.27;nan
75656;BME280;64252;51.094;13.714;2023-08-07T08:44:51;99480.13;;;24.81;nan
75656;BME280;64252;51.094;13.714;2023-08-07T08:47:18;99487.31;;;24.45;nan
75656;BME280;64252;51.094;13.714;2023-08-07T08:49:46;99485.00;;;25.21;nan
75656;BME280;64252;51.094;13.714;2023-08-07T08:56:01;99486.72;;;25.07;nan
75656;BME280;64252;51.094;13.714;2023-08-07T08:58:27;99490.16;;;25.68;nan
75656;BME280;64252;51.094;13.714;2023-08-07T09:00:53;99493.97;;;26.34;nan
75656;BME280;64252;51.094;13.714;2023-08-07T09:03:19;99492.59;;;25.81;nan
75656;BME280;64252;51.094;13.714;2023-08-07T09:05:45;99497.81;;;25.77;nan
75656;BME280;64252;51.094;13.714;2023-08-07T09:08:12;99500.78;;;24.74;nan
75656;BME280;64252;51.094;13.714;2023-08-07T09:10:39;99506.00;;;23.74;nan
75656;BME280;64252;51.094;13.714;2023-08-07T09:13:09;99498.41;;;25.18;nan
75656;BME280;64252;51.094;13.714;2023-08-07T09:15:37;99499.88;;;25.08;nan
75656;BME280;64252;51.094;13.714;2023-08-07T09:18:06;99505.97;;;26.15;nan
75656;BME280;64252;51.094;13.714;2023-08-07T09:20:36;99507.16;;;25.55;nan
75656;BME280;64252;51.094;13.714;2023-08-07T09:23:04;99512.88;;;25.24;nan
75656;BME280;64252;51.094;13.714;2023-08-07T09:25:31;99495.22;;;25.48;nan
75656;BME280;64252;51.094;13.714;2023-08-07T09:27:57;99515.81;;;26.35;nan
75656;BME280;64252;51.094;13.714;2023-08-07T09:33:48;99509.16;;;24.92;nan
75656;BME280;64252;51.094;13.714;2023-08-07T09:36:14;99505.44;;;25.74;nan
75656;BME280;64252;51.094;13.714;2023-08-07T09:38:39;99514.09;;;24.66;nan
75656;BME280;64252;51.094;13.714;2023-08-07T09:41:05;99500.13;;;25.36;nan
75656;BME280;64252;51.094;13.714;2023-08-07T09:43:35;99505.34;;;25.63;nan
75656;BME280;64252;51.094;13.714;2023-08-07T09:46:05;99505.84;;;25.93;nan
75656;BME280;64252;51.094;13.714;2023-08-07T09:48:31;99509.88;;;25.70;nan
75656;BME280;64252;51.094;13.714;2023-08-07T09:51:02;99502.59;;;25.80;nan
75656;BME280;64252;51.094;13.714;2023-08-07T09:53:30;99503.84;;;25.73;nan
75656;BME280;64252;51.094;13.714;2023-08-07T09:55:55;99515.25;;;26.25;nan
75656;BME280;64252;51.094;13.714;2023-08-07T09:58:22;99511.88;;;26.97;nan
75656;BME280;64252;51.094;13.714;2023-08-07T10:00:48;99516.63;;;27.28;nan
75656;BME280;64252;51.094;13.714;2023-08-07T10:03:14;99504.25;;;27.83;nan
75656;BME280;64252;51.094;13.714;2023-08-07T10:05:43;99512.66;;;26.97;nan
75656;BME280;64252;51.094;13.714;2023-08-07T10:08:10;99513.28;;;26.53;nan
75656;BME280;64252;51.094;13.714;2023-08-07T10:10:37;99516.50;;;26.18;nan
75656;BME280;64252;51.094;13.714;2023-08-07T10:13:03;99521.22;;;25.48;nan
75656;BME280;64252;51.094;13.714;2023-08-07T10:15:29;99518.13;;;24.94;nan
75656;BME280;64252;51.094;13.714;2023-08-07T10:17:56;99519.97;;;25.23;nan
75656;BME280;64252;51.094;13.714;2023-08-07T10:20:24;99524.00;;;25.94;nan
75656;BME280;64252;51.094;13.714;2023-08-07T10:22:52;99515.94;;;25.72;nan
75656;BME280;64252;51.094;13.714;2023-08-07T10:25:22;99529.25;;;26.38;nan
75656;BME280;64252;51.094;13.714;2023-08-07T10:27:51;99527.44;;;25.98;nan
75656;BME280;64252;51.094;13.714;2023-08-07T10:30:19;99541.78;;;25.81;nan
75656;BME280;64252;51.094;13.714;2023-08-07T10:32:46;99539.31;;;26.48;nan
75656;BME280;64252;51.094;13.714;2023-08-07T10:37:51;99531.38;;;26.43;nan
75656;BME280;64252;51.094;13.714;2023-08-07T10:40:17;99525.56;;;27.07;nan
75656;BME280;64252;51.094;13.714;2023-08-07T10:42:58;99525.72;;;26.76;nan
75656;BME280;64252;51.094;13.714;2023-08-07T10:45:25;99533.53;;;27.74;nan
75656;BME280;64252;51.094;13.714;2023-08-07T10:48:11;99531.97;;;27.84;nan
75656;BME280;64252;51.094;13.714;2023-08-07T10:51:05;99536.53;;;25.85;nan
75656;BME280;64252;51.094;13.714;2023-08-07T10:53:33;99528.72;;;26.34;nan
75656;BME280;64252;51.094;13.714;2023-08-07T10:56:08;99541.19;;;25.14;nan
75656;BME280;64252;51.094;13.714;2023-08-07T10:58:36;99538.84;;;24.92;nan
75656;BME280;64252;51.094;13.714;2023-08-07T11:01:21;99535.59;;;25.37;nan
75656;BME280;64252;51.094;13.714;2023-08-07T11:03:55;99546.56;;;25.27;nan
75656;BME280;64252;51.094;13.714;2023-08-07T11:06:23;99535.59;;;25.37;nan
75656;BME280;64252;51.094;13.714;2023-08-07T11:08:49;99543.06;;;26.17;nan
75656;BME280;64252;51.094;13.714;2023-08-07T11:11:16;99536.66;;;25.65;nan
75656;BME280;64252;51.094;13.714;2023-08-07T11:13:42;99520.53;;;26.32;nan
75656;BME280;64252;51.094;13.714;2023-08-07T11:16:09;99525.44;;;25.47;nan
75656;BME280;64252;51.094;13.714;2023-08-07T11:18:34;99534.63;;;25.45;nan
75656;BME280;64252;51.094;13.714;2023-08-07T11:21:09;99531.88;;;25.30;nan
75656;BME280;64252;51.094;13.714;2023-08-07T11:23:39;99514.41;;;25.19;nan
75656;BME280;64252;51.094;13.714;2023-08-07T11:26:05;99528.34;;;24.14;nan
75656;BME280;64252;51.094;13.714;2023-08-07T11:28:30;99534.09;;;24.49;nan
75656;BME280;64252;51.094;13.714;2023-08-07T11:30:57;99542.88;;;23.85;nan
75656;BME280;64252;51.094;13.714;2023-08-07T11:33:24;99551.22;;;24.53;nan
75656;BME280;64252;51.094;13.714;2023-08-07T11:35:51;99570.13;;;23.25;nan
75656;BME280;64252;51.094;13.714;2023-08-07T11:38:38;99558.00;;;23.80;nan
75656;BME280;64252;51.094;13.714;2023-08-07T11:41:07;99564.38;;;23.25;nan
75656;BME280;64252;51.094;13.714;2023-08-07T11:43:34;99573.72;;;23.20;nan
75656;BME280;64252;51.094;13.714;2023-08-07T11:46:05;99579.03;;;22.83;nan
75656;BME280;64252;51.094;13.714;2023-08-07T11:48:34;99583.03;;;23.00;nan
75656;BME280;64252;51.094;13.714;2023-08-07T11:51:04;99580.63;;;22.99;nan
75656;BME280;64252;51.094;13.714;2023-08-07T11:53:35;99575.72;;;22.28;nan
75656;BME280;64252;51.094;13.714;2023-08-07T11:56:01;99589.84;;;23.56;nan
75656;BME280;64252;51.094;13.714;2023-08-07T11:58:34;99586.81;;;23.94;nan
75656;BME280;64252;51.094;13.714;2023-08-07T12:01:06;99592.22;;;23.57;nan
75656;BME280;64252;51.094;13.714;2023-08-07T12:03:36;99581.22;;;22.88;nan
75656;BME280;64252;51.094;13.714;2023-08-07T12:06:08;99577.59;;;23.61;nan
75656;BME280;64252;51.094;13.714;2023-08-07T12:08:39;99573.28;;;22.98;nan
75656;BME280;64252;51.094;13.714;2023-08-07T12:11:07;99572.78;;;24.37;nan
75656;BME280;64252;51.094;13.714;2023-08-07T12:13:37;99566.31;;;25.60;nan
75656;BME280;64252;51.094;13.714;2023-08-07T12:16:03;99574.47;;;26.78;nan
75656;BME280;64252;51.094;13.714;2023-08-07T12:18:29;99576.97;;;26.53;nan
75656;BME280;64252;51.094;13.714;2023-08-07T12:21:00;99565.50;;;26.28;nan
75656;BME280;64252;51.094;13.714;2023-08-07T12:23:26;99570.63;;;27.08;nan
75656;BME280;64252;51.094;13.714;2023-08-07T12:25:52;99563.88;;;26.63;nan
75656;BME280;64252;51.094;13.714;2023-08-07T12:28:20;99562.22;;;27.16;nan
75656;BME280;64252;51.094;13.714;2023-08-07T12:30:47;99568.25;;;26.48;nan
75656;BME280;64252;51.094;13.714;2023-08-07T12:33:14;99565.41;;;25.74;nan
75656;BME280;64252;51.094;13.714;2023-08-07T12:35:40;99569.28;;;25.71;nan
75656;BME280;64252;51.094;13.714;2023-08-07T12:38:07;99572.66;;;25.64;nan
75656;BME280;64252;51.094;13.714;2023-08-07T12:40:34;99573.38;;;26.22;nan
75656;BME280;64252;51.094;13.714;2023-08-07T12:43:04;99573.03;;;26.51;nan
75656;BME280;64252;51.094;13.714;2023-08-07T12:45:30;99573.53;;;25.18;nan
75656;BME280;64252;51.094;13.714;2023-08-07T12:47:56;99578.84;;;24.79;nan
75656;BME280;64252;51.094;13.714;2023-08-07T12:50:21;99571.53;;;25.87;nan
75656;BME280;64252;51.094;13.714;2023-08-07T12:52:47;99572.53;;;25.78;nan
75656;BME280;64252;51.094;13.714;2023-08-07T12:55:13;99569.50;;;26.30;nan
75656;BME280;64252;51.094;13.714;2023-08-07T12:57:42;99576.34;;;25.64;nan
75656;BME280;64252;51.094;13.714;2023-08-07T13:00:09;99582.13;;;25.39;nan
75656;BME280;64252;51.094;13.714;2023-08-07T13:02:41;99586.97;;;25.01;nan
75656;BME280;64252;51.094;13.714;2023-08-07T13:05:08;99603.81;;;24.42;nan
75656;BME280;64252;51.094;13.714;2023-08-07T13:07:38;99599.41;;;23.97;nan
75656;BME280;64252;51.094;13.714;2023-08-07T13:10:06;99595.25;;;23.83;nan
75656;BME280;64252;51.094;13.714;2023-08-07T13:12:40;99599.75;;;23.70;nan
75656;BME280;64252;51.094;13.714;2023-08-07T13:15:08;99594.50;;;24.73;nan
75656;BME280;64252;51.094;13.714;2023-08-07T13:17:35;99588.56;;;25.02;nan
75656;BME280;64252;51.094;13.714;2023-08-07T13:20:03;99594.72;;;25.35;nan
75656;BME280;64252;51.094;13.714;2023-08-07T13:22:43;99592.53;;;26.56;nan
75656;BME280;64252;51.094;13.714;2023-08-07T13:25:10;99594.31;;;25.74;nan
75656;BME280;64252;51.094;13.714;2023-08-07T13:27:36;99587.31;;;25.86;nan
75656;BME280;64252;51.094;13.714;2023-08-07T13:30:03;99592.09;;;26.80;nan
75656;BME280;64252;51.094;13.714;2023-08-07T13:32:29;99596.41;;;25.48;nan
75656;BME280;64252;51.094;13.714;2023-08-07T13:34:55;99594.31;;;25.74;nan
75656;BME280;64252;51.094;13.714;2023-08-07T13:37:21;99599.06;;;26.45;nan
75656;BME280;64252;51.094;13.714;2023-08-07T13:39:50;99628.03;;;24.15;nan
75656;BME280;64252;51.094;13.714;2023-08-07T13:42:18;99618.91;;;24.92;nan
75656;BME280;64252;51.094;13.714;2023-08-07T13:44:43;99631.53;;;24.19;nan
75656;BME280;64252;51.094;13.714;2023-08-07T13:47:09;99628.28;;;24.46;nan